Time,TemperatureF,DewpointF,PressureIn,WindDirection,WindDirectionDegrees,WindSpeedMPH,WindSpeedGustMPH,Humidity,HourlyPrecipIn,Conditions,Clouds,dailyrainin,SoftwareType,DateUTC
2013-02-12 00:01:00,51.6,38.9,29.98,East,90,0.0,0.0,62,0.00,,,0.00,WUHU216HW,2013-02-12 06:01:00,
2013-02-12 00:06:00,51.4,38.7,29.97,ESE,113,0.0,0.0,62,0.00,,,0.00,WUHU216HW,2013-02-12 06:06:00,
2013-02-12 00:11:00,51.4,38.7,29.97,ENE,68,0.0,0.0,62,0.00,,,0.00,WUHU216HW,2013-02-12 06:11:00,
2013-02-12 00:16:00,51.4,38.7,29.97,East,90,2.6,2.6,62,0.00,,,0.00,WUHU216HW,2013-02-12 06:16:00,
2013-02-12 00:21:00,51.4,38.7,29.97,ENE,68,0.0,2.6,62,0.00,,,0.00,WUHU216HW,2013-02-12 06:21:00,
2013-02-12 00:26:00,51.2,38.6,29.97,East,90,0.0,2.6,62,0.00,,,0.00,WUHU216HW,2013-02-12 06:26:00,
2013-02-12 00:31:00,51.0,38.4,29.96,East,90,0.0,0.0,62,0.00,,,0.00,WUHU216HW,2013-02-12 06:31:00,
2013-02-12 00:36:00,51.0,38.8,29.96,East,90,0.0,1.3,63,0.00,,,0.00,WUHU216HW,2013-02-12 06:36:00,
2013-02-12 00:41:00,51.0,38.8,29.95,East,90,0.0,1.3,63,0.00,,,0.00,WUHU216HW,2013-02-12 06:41:00,
2013-02-12 00:46:00,51.0,38.8,29.95,ESE,113,0.0,0.0,63,0.00,,,0.00,WUHU216HW,2013-02-12 06:46:00,
2013-02-12 00:51:00,50.9,38.6,29.94,ENE,68,0.0,0.0,63,0.00,,,0.00,WUHU216HW,2013-02-12 06:51:00,
2013-02-12 00:56:00,50.9,39.1,29.94,ENE,68,0.0,0.0,64,0.00,,,0.00,WUHU216HW,2013-02-12 06:56:00,
2013-02-12 01:01:00,50.9,39.1,29.93,ESE,113,2.2,2.2,64,0.00,,,0.00,WUHU216HW,2013-02-12 07:01:00,
2013-02-12 01:06:00,51.0,39.2,29.94,ENE,68,0.0,2.2,64,0.00,,,0.00,WUHU216HW,2013-02-12 07:06:00,
2013-02-12 01:11:00,50.9,39.1,29.99,ENE,68,0.0,2.2,64,0.00,,,0.00,WUHU216HW,2013-02-12 07:11:00,
2013-02-12 01:16:00,51.0,39.2,29.95,ESE,113,0.0,0.0,64,0.00,,,0.00,WUHU216HW,2013-02-12 07:16:00,
2013-02-12 01:21:00,51.0,39.2,29.91,NE,45,0.0,0.0,64,0.00,,,0.00,WUHU216HW,2013-02-12 07:21:00,
2013-02-12 01:26:00,51.0,39.6,29.92,ENE,68,0.0,0.0,65,0.00,,,0.00,WUHU216HW,2013-02-12 07:26:00,
2013-02-12 01:31:00,50.9,39.5,29.92,East,90,0.0,0.0,65,0.00,,,0.00,WUHU216HW,2013-02-12 07:31:00,
2013-02-12 01:36:00,50.9,39.5,29.92,East,90,7.6,7.8,65,0.00,,,0.00,WUHU216HW,2013-02-12 07:36:00,
2013-02-12 01:42:00,50.9,39.5,29.95,SSE,158,0.0,7.8,65,0.00,,,0.00,WUHU216HW,2013-02-12 07:42:00,
2013-02-12 01:47:00,50.9,39.5,29.97,SSE,158,0.0,0.0,65,0.00,,,0.00,WUHU216HW,2013-02-12 07:47:00,
2013-02-12 01:52:00,51.0,39.6,29.97,SSE,158,0.0,0.0,65,0.00,,,0.00,WUHU216HW,2013-02-12 07:52:00,
2013-02-12 01:57:00,51.0,40.0,29.97,ENE,68,0.0,0.0,66,0.00,,,0.00,WUHU216HW,2013-02-12 07:57:00,
2013-02-12 02:02:00,51.0,40.0,29.97,East,90,0.0,0.0,66,0.00,,,0.00,WUHU216HW,2013-02-12 08:02:00,
2013-02-12 02:07:00,50.9,39.9,29.98,East,90,0.0,0.0,66,0.00,,,0.00,WUHU216HW,2013-02-12 08:07:00,
2013-02-12 02:12:00,51.4,40.4,29.98,East,90,0.0,0.0,66,0.00,,,0.00,WUHU216HW,2013-02-12 08:12:00,
2013-02-12 02:17:00,51.4,40.4,29.97,East,90,0.0,0.0,66,0.00,,,0.00,WUHU216HW,2013-02-12 08:17:00,
2013-02-12 02:22:00,51.6,40.6,29.97,East,90,0.0,0.0,66,0.00,,,0.00,WUHU216HW,2013-02-12 08:22:00,
2013-02-12 02:27:00,51.6,40.6,29.98,ENE,68,0.0,0.0,66,0.00,,,0.00,WUHU216HW,2013-02-12 08:27:00,
2013-02-12 02:32:00,51.6,40.6,29.98,ENE,68,0.0,0.0,66,0.00,,,0.00,WUHU216HW,2013-02-12 08:32:00,
2013-02-12 02:37:00,51.6,40.6,29.97,ENE,68,0.0,0.0,66,0.00,,,0.00,WUHU216HW,2013-02-12 08:37:00,
2013-02-12 02:42:00,51.6,41.0,29.96,ENE,68,0.0,0.0,67,0.00,,,0.00,WUHU216HW,2013-02-12 08:42:00,
2013-02-12 02:47:00,51.6,41.0,29.95,ENE,68,0.0,0.0,67,0.00,,,0.00,WUHU216HW,2013-02-12 08:47:00,
2013-02-12 02:52:00,51.6,41.0,29.96,ENE,68,0.0,0.0,67,0.00,,,0.00,WUHU216HW,2013-02-12 08:52:00,
2013-02-12 02:57:00,51.6,41.4,29.95,NE,45,0.0,0.0,68,0.00,,,0.00,WUHU216HW,2013-02-12 08:57:00,
2013-02-12 03:02:00,51.6,41.4,29.95,ESE,113,0.0,0.0,68,0.00,,,0.00,WUHU216HW,2013-02-12 09:02:00,
2013-02-12 03:07:00,51.4,41.6,29.94,ESE,113,0.0,0.0,69,0.00,,,0.00,WUHU216HW,2013-02-12 09:07:00,
2013-02-12 03:12:00,51.4,42.0,29.94,ENE,68,0.0,0.0,70,0.00,,,0.00,WUHU216HW,2013-02-12 09:12:00,
2013-02-12 03:17:00,51.4,42.0,29.94,East,90,0.0,0.0,70,0.00,,,0.00,WUHU216HW,2013-02-12 09:17:00,
2013-02-12 03:22:00,51.4,42.0,29.93,ESE,113,0.0,0.0,70,0.00,,,0.00,WUHU216HW,2013-02-12 09:22:00,
2013-02-12 03:27:00,51.4,42.4,29.94,ESE,113,0.0,0.0,71,0.00,,,0.00,WUHU216HW,2013-02-12 09:27:00,
2013-02-12 03:32:00,51.4,42.4,29.93,ESE,113,0.0,0.0,71,0.00,,,0.00,WUHU216HW,2013-02-12 09:32:00,
2013-02-12 03:37:00,51.2,42.2,29.92,East,90,0.0,0.0,71,0.00,,,0.00,WUHU216HW,2013-02-12 09:37:00,
2013-02-12 03:42:00,51.0,42.4,29.92,East,90,0.0,0.0,72,0.00,,,0.00,WUHU216HW,2013-02-12 09:42:00,
2013-02-12 03:47:00,51.0,42.4,29.93,ENE,68,0.0,0.0,72,0.00,,,0.00,WUHU216HW,2013-02-12 09:47:00,
2013-02-12 03:52:00,51.0,42.4,29.91,ENE,68,0.0,0.0,72,0.00,,,0.00,WUHU216HW,2013-02-12 09:52:00,
2013-02-12 03:57:00,50.9,42.5,29.92,NE,45,0.0,0.0,73,0.00,,,0.00,WUHU216HW,2013-02-12 09:57:00,
2013-02-12 04:09:00,50.9,42.5,29.91,NE,45,0.0,0.0,73,0.00,,,0.00,WUHU216HW,2013-02-12 10:09:00,
2013-02-12 04:14:00,50.7,42.7,29.88,ESE,113,0.0,0.0,74,0.00,,,0.00,WUHU216HW,2013-02-12 10:14:00,
2013-02-12 04:19:00,50.5,42.8,29.89,ESE,113,1.1,1.1,75,0.00,,,0.00,WUHU216HW,2013-02-12 10:19:00,
2013-02-12 04:24:00,50.5,42.8,29.89,ENE,68,0.0,8.2,75,0.00,,,0.00,WUHU216HW,2013-02-12 10:24:00,
2013-02-12 04:29:00,50.5,42.8,29.90,ENE,68,0.0,8.2,75,0.00,,,0.00,WUHU216HW,2013-02-12 10:29:00,
2013-02-12 04:34:00,50.5,42.8,29.91,ENE,68,0.0,0.0,75,0.00,,,0.00,WUHU216HW,2013-02-12 10:34:00,
2013-02-12 04:39:00,50.5,42.8,29.91,ESE,113,0.0,0.0,75,0.00,,,0.00,WUHU216HW,2013-02-12 10:39:00,
2013-02-12 04:44:00,50.3,43.0,29.88,ENE,68,0.0,3.5,76,0.02,,,0.02,WUHU216HW,2013-02-12 10:44:00,
2013-02-12 04:49:00,50.1,42.8,29.89,ENE,68,0.0,3.5,76,0.04,,,0.04,WUHU216HW,2013-02-12 10:49:00,
2013-02-12 04:54:00,50.1,43.2,29.87,ENE,68,0.0,0.0,77,0.06,,,0.06,WUHU216HW,2013-02-12 10:54:00,
2013-02-12 04:59:00,49.8,42.8,29.86,ESE,113,0.0,0.0,77,0.06,,,0.06,WUHU216HW,2013-02-12 10:59:00,
2013-02-12 05:04:00,49.8,43.1,29.86,ENE,68,0.0,0.0,78,0.06,,,0.06,WUHU216HW,2013-02-12 11:04:00,
2013-02-12 05:10:00,49.8,43.1,29.86,NNE,23,0.0,0.0,78,0.06,,,0.06,WUHU216HW,2013-02-12 11:10:00,
2013-02-12 05:15:00,49.6,43.0,29.85,NE,45,0.0,0.0,78,0.06,,,0.06,WUHU216HW,2013-02-12 11:15:00,
2013-02-12 05:20:00,49.8,43.1,29.86,ENE,68,0.0,0.0,78,0.06,,,0.06,WUHU216HW,2013-02-12 11:20:00,
2013-02-12 05:25:00,49.8,43.1,29.87,ENE,68,0.0,0.0,78,0.06,,,0.06,WUHU216HW,2013-02-12 11:25:00,
2013-02-12 05:30:00,49.8,43.5,29.87,ENE,68,0.0,0.0,79,0.06,,,0.06,WUHU216HW,2013-02-12 11:30:00,
2013-02-12 05:35:00,49.6,43.3,29.86,North,0,0.0,0.0,79,0.06,,,0.06,WUHU216HW,2013-02-12 11:35:00,
2013-02-12 05:40:00,49.8,43.5,29.87,NNE,23,0.0,0.0,79,0.04,,,0.06,WUHU216HW,2013-02-12 11:40:00,
2013-02-12 05:45:00,49.8,43.5,29.90,NNE,23,0.0,0.0,79,0.04,,,0.06,WUHU216HW,2013-02-12 11:45:00,
2013-02-12 05:50:00,49.8,43.8,29.88,NNE,23,0.0,0.0,80,0.04,,,0.08,WUHU216HW,2013-02-12 11:50:00,
2013-02-12 05:55:00,49.8,43.8,29.88,NNE,23,0.0,0.0,80,0.04,,,0.10,WUHU216HW,2013-02-12 11:55:00,
2013-02-12 06:00:00,49.8,43.8,29.87,NNE,23,0.0,0.0,80,0.08,,,0.14,WUHU216HW,2013-02-12 12:00:00,
2013-02-12 06:05:00,49.8,43.8,29.87,East,90,0.0,0.0,80,0.08,,,0.14,WUHU216HW,2013-02-12 12:05:00,
2013-02-12 06:10:00,49.8,43.8,29.88,East,90,0.0,0.0,80,0.08,,,0.14,WUHU216HW,2013-02-12 12:10:00,
2013-02-12 06:15:00,49.6,43.7,29.87,ENE,68,0.0,0.0,80,0.08,,,0.14,WUHU216HW,2013-02-12 12:15:00,
2013-02-12 06:20:00,49.6,44.0,29.86,NE,45,0.0,0.0,81,0.08,,,0.14,WUHU216HW,2013-02-12 12:20:00,
2013-02-12 06:25:00,49.6,44.0,29.86,NNE,23,0.0,0.0,81,0.08,,,0.14,WUHU216HW,2013-02-12 12:25:00,
2013-02-12 06:30:00,49.6,44.0,29.86,NNE,23,0.0,0.0,81,0.08,,,0.14,WUHU216HW,2013-02-12 12:30:00,
2013-02-12 06:35:00,49.6,44.0,29.86,NE,45,0.0,0.0,81,0.08,,,0.14,WUHU216HW,2013-02-12 12:35:00,
2013-02-12 06:40:00,49.6,44.0,29.86,East,90,0.0,0.0,81,0.08,,,0.14,WUHU216HW,2013-02-12 12:40:00,
2013-02-12 06:46:00,49.6,44.0,29.86,ENE,68,0.0,0.0,81,0.10,,,0.16,WUHU216HW,2013-02-12 12:46:00,
2013-02-12 06:51:00,49.6,44.0,29.86,ENE,68,0.0,0.0,81,0.06,,,0.16,WUHU216HW,2013-02-12 12:51:00,
2013-02-12 06:56:00,49.6,44.0,29.86,East,90,0.0,0.0,81,0.02,,,0.16,WUHU216HW,2013-02-12 12:56:00,
2013-02-12 07:01:00,49.6,44.0,29.85,East,90,0.0,0.0,81,0.02,,,0.16,WUHU216HW,2013-02-12 13:01:00,
2013-02-12 07:06:00,49.6,44.0,29.85,ENE,68,0.0,0.0,81,0.02,,,0.16,WUHU216HW,2013-02-12 13:06:00,
2013-02-12 07:11:00,49.2,43.6,29.85,ESE,113,0.0,4.6,81,0.02,,,0.16,WUHU216HW,2013-02-12 13:11:00,
2013-02-12 07:16:00,49.2,43.6,29.85,East,90,0.0,4.6,81,0.02,,,0.16,WUHU216HW,2013-02-12 13:16:00,
2013-02-12 07:21:00,49.2,43.9,29.84,East,90,0.0,0.0,82,0.02,,,0.16,WUHU216HW,2013-02-12 13:21:00,
2013-02-12 07:26:00,49.2,43.9,29.85,East,90,0.6,0.6,82,0.02,,,0.16,WUHU216HW,2013-02-12 13:26:00,
2013-02-12 07:31:00,49.2,43.9,29.85,East,90,2.9,2.9,82,0.02,,,0.16,WUHU216HW,2013-02-12 13:31:00,
2013-02-12 07:36:00,49.2,43.9,29.84,East,90,0.0,2.9,82,0.02,,,0.16,WUHU216HW,2013-02-12 13:36:00,
2013-02-12 07:41:00,49.2,43.9,29.85,ENE,68,0.0,2.9,82,0.00,,,0.16,WUHU216HW,2013-02-12 13:41:00,
2013-02-12 07:46:00,49.2,43.9,29.85,ENE,68,0.0,0.0,82,0.00,,,0.16,WUHU216HW,2013-02-12 13:46:00,
2013-02-12 07:52:00,49.4,44.1,29.85,NE,45,0.0,0.0,82,0.00,,,0.16,WUHU216HW,2013-02-12 13:52:00,
2013-02-12 07:57:00,49.2,43.9,29.85,NE,45,0.0,0.0,82,0.00,,,0.16,WUHU216HW,2013-02-12 13:57:00,
2013-02-12 08:02:00,49.2,43.9,29.85,NE,45,0.0,0.0,82,0.00,,,0.16,WUHU216HW,2013-02-12 14:02:00,
2013-02-12 08:07:00,49.6,44.3,29.84,ENE,68,2.4,2.4,82,0.00,,,0.16,WUHU216HW,2013-02-12 14:07:00,
2013-02-12 08:12:00,49.6,44.3,29.85,ENE,68,0.0,2.4,82,0.00,,,0.16,WUHU216HW,2013-02-12 14:12:00,
2013-02-12 08:17:00,49.6,44.3,29.85,ESE,113,0.0,2.4,82,0.00,,,0.16,WUHU216HW,2013-02-12 14:17:00,
2013-02-12 08:22:00,49.4,44.1,29.86,ENE,68,0.0,0.0,82,0.00,,,0.16,WUHU216HW,2013-02-12 14:22:00,
2013-02-12 08:27:00,49.2,44.2,29.89,West,270,0.0,0.0,83,0.02,,,0.18,WUHU216HW,2013-02-12 14:27:00,
2013-02-12 08:32:00,48.9,44.2,29.89,WNW,293,0.0,0.0,84,0.02,,,0.18,WUHU216HW,2013-02-12 14:32:00,
2013-02-12 08:37:00,49.1,44.4,29.88,NNW,338,0.0,0.0,84,0.02,,,0.18,WUHU216HW,2013-02-12 14:37:00,
2013-02-12 08:42:00,49.2,44.5,29.86,East,90,0.0,0.0,84,0.04,,,0.20,WUHU216HW,2013-02-12 14:42:00,
2013-02-12 08:47:00,49.1,44.4,29.88,NW,315,0.0,0.0,84,0.04,,,0.20,WUHU216HW,2013-02-12 14:47:00,
2013-02-12 08:52:00,49.1,44.4,29.89,NW,315,0.0,0.0,84,0.04,,,0.20,WUHU216HW,2013-02-12 14:52:00,
2013-02-12 08:57:00,49.4,44.7,29.89,NW,315,0.0,0.0,84,0.04,,,0.20,WUHU216HW,2013-02-12 14:57:00,
2013-02-12 09:02:00,49.6,44.9,29.88,NW,315,0.0,0.0,84,0.06,,,0.22,WUHU216HW,2013-02-12 15:02:00,
2013-02-12 09:07:00,49.6,44.9,29.89,NW,315,0.0,0.0,84,0.06,,,0.22,WUHU216HW,2013-02-12 15:07:00,
2013-02-12 09:13:00,49.6,44.9,29.89,NW,315,0.0,0.0,84,0.06,,,0.22,WUHU216HW,2013-02-12 15:13:00,
2013-02-12 09:18:00,49.6,44.9,29.89,NW,315,0.0,0.0,84,0.08,,,0.24,WUHU216HW,2013-02-12 15:18:00,
2013-02-12 09:23:00,49.8,45.4,29.89,NW,315,0.0,0.0,85,0.08,,,0.24,WUHU216HW,2013-02-12 15:23:00,
2013-02-12 09:28:00,49.6,45.2,29.89,NW,315,0.0,0.0,85,0.06,,,0.24,WUHU216HW,2013-02-12 15:28:00,
2013-02-12 09:33:00,49.8,45.4,29.89,NW,315,0.0,0.0,85,0.06,,,0.24,WUHU216HW,2013-02-12 15:33:00,
2013-02-12 09:38:00,49.8,45.4,29.89,NW,315,0.0,0.0,85,0.06,,,0.24,WUHU216HW,2013-02-12 15:38:00,
2013-02-12 09:43:00,49.8,45.4,29.89,NW,315,0.0,0.0,85,0.04,,,0.24,WUHU216HW,2013-02-12 15:43:00,
2013-02-12 09:48:00,49.8,45.4,29.89,NW,315,0.0,0.0,85,0.04,,,0.24,WUHU216HW,2013-02-12 15:48:00,
2013-02-12 09:53:00,49.8,45.4,29.90,NW,315,0.0,0.0,85,0.04,,,0.24,WUHU216HW,2013-02-12 15:53:00,
2013-02-12 09:58:00,49.8,45.4,29.90,NW,315,0.0,0.0,85,0.02,,,0.24,WUHU216HW,2013-02-12 15:58:00,
2013-02-12 10:03:00,49.8,45.4,29.90,NW,315,0.0,0.0,85,0.02,,,0.24,WUHU216HW,2013-02-12 16:03:00,
2013-02-12 10:08:00,49.8,45.4,29.90,NW,315,0.0,0.0,85,0.02,,,0.24,WUHU216HW,2013-02-12 16:08:00,
2013-02-12 10:13:00,49.8,45.4,29.90,NW,315,0.0,0.0,85,0.02,,,0.24,WUHU216HW,2013-02-12 16:13:00,
2013-02-12 10:18:00,49.8,45.4,29.90,NW,315,0.0,0.0,85,0.00,,,0.24,WUHU216HW,2013-02-12 16:18:00,
2013-02-12 10:23:00,49.8,45.4,29.89,NW,315,0.0,0.0,85,0.00,,,0.24,WUHU216HW,2013-02-12 16:23:00,
2013-02-12 10:28:00,50.1,45.7,29.89,NW,315,0.0,0.0,85,0.00,,,0.24,WUHU216HW,2013-02-12 16:28:00,
2013-02-12 10:33:00,50.1,45.7,29.89,NW,315,0.0,0.0,85,0.00,,,0.24,WUHU216HW,2013-02-12 16:33:00,
2013-02-12 10:38:00,50.3,45.9,29.89,NW,315,0.0,0.0,85,0.00,,,0.24,WUHU216HW,2013-02-12 16:38:00,
2013-02-12 10:43:00,50.3,45.9,29.89,NNW,338,0.0,0.0,85,0.00,,,0.24,WUHU216HW,2013-02-12 16:43:00,
2013-02-12 10:48:00,50.3,45.9,29.89,NNW,338,0.0,0.0,85,0.00,,,0.24,WUHU216HW,2013-02-12 16:48:00,
2013-02-12 10:53:00,50.3,45.9,29.89,NNW,338,0.0,0.0,85,0.00,,,0.24,WUHU216HW,2013-02-12 16:53:00,
2013-02-12 10:59:00,50.5,45.9,29.89,NNW,338,0.0,0.0,85,0.00,,,0.24,WUHU216HW,2013-02-12 16:59:00,
2013-02-12 11:04:00,50.5,46.1,29.89,NNW,338,0.0,0.0,85,0.00,,,0.24,WUHU216HW,2013-02-12 17:04:00,
2013-02-12 11:09:00,50.3,45.9,29.89,NNW,338,0.0,0.0,85,0.00,,,0.24,WUHU216HW,2013-02-12 17:09:00,
2013-02-12 11:14:00,50.5,46.1,29.89,NNW,338,0.0,0.0,85,0.00,,,0.24,WUHU216HW,2013-02-12 17:14:00,
2013-02-12 11:19:00,50.5,46.1,29.89,North,0,0.6,0.6,85,0.00,,,0.24,WUHU216HW,2013-02-12 17:19:00,
2013-02-12 11:24:00,50.5,46.1,29.88,North,0,0.0,0.6,85,0.00,,,0.24,WUHU216HW,2013-02-12 17:24:00,
2013-02-12 11:29:00,50.7,46.3,29.88,North,0,0.0,0.6,85,0.00,,,0.24,WUHU216HW,2013-02-12 17:29:00,
2013-02-12 11:34:00,50.7,46.3,29.89,North,0,0.0,0.0,85,0.00,,,0.24,WUHU216HW,2013-02-12 17:34:00,
2013-02-12 11:39:00,50.7,46.3,29.88,NNE,23,0.0,0.0,85,0.00,,,0.24,WUHU216HW,2013-02-12 17:39:00,
2013-02-12 11:44:00,50.7,46.3,29.88,NNE,23,0.0,0.0,85,0.00,,,0.24,WUHU216HW,2013-02-12 17:44:00,
2013-02-12 11:49:00,50.7,46.3,29.88,NNE,23,0.0,0.0,85,0.00,,,0.24,WUHU216HW,2013-02-12 17:49:00,
2013-02-12 11:54:00,50.7,46.3,29.88,NNE,23,0.0,0.0,85,0.00,,,0.24,WUHU216HW,2013-02-12 17:54:00,
2013-02-12 11:59:00,50.7,46.3,29.88,NNE,23,0.0,0.0,85,0.00,,,0.24,WUHU216HW,2013-02-12 17:59:00,
2013-02-12 12:04:00,50.7,46.3,29.87,NNE,23,0.0,0.0,85,0.00,,,0.24,WUHU216HW,2013-02-12 18:04:00,
2013-02-12 12:09:00,51.0,46.6,29.87,NNE,23,0.0,0.0,85,0.00,,,0.24,WUHU216HW,2013-02-12 18:09:00,
2013-02-12 12:14:00,51.0,46.6,29.87,NNE,23,0.0,0.0,85,0.00,,,0.24,WUHU216HW,2013-02-12 18:14:00,
2013-02-12 12:20:00,51.0,46.6,29.87,North,0,0.0,0.0,85,0.00,,,0.24,WUHU216HW,2013-02-12 18:20:00,
2013-02-12 12:25:00,50.9,46.1,29.87,North,0,0.0,0.0,84,0.00,,,0.24,WUHU216HW,2013-02-12 18:25:00,
2013-02-12 12:30:00,50.9,46.1,29.87,North,0,0.0,0.0,84,0.00,,,0.24,WUHU216HW,2013-02-12 18:30:00,
2013-02-12 12:35:00,50.9,46.1,29.87,North,0,0.0,0.0,84,0.00,,,0.24,WUHU216HW,2013-02-12 18:35:00,
2013-02-12 12:40:00,50.9,46.1,29.86,North,0,0.0,0.0,84,0.00,,,0.24,WUHU216HW,2013-02-12 18:40:00,
2013-02-12 12:45:00,50.9,46.1,29.86,North,0,0.0,0.0,84,0.00,,,0.24,WUHU216HW,2013-02-12 18:45:00,
2013-02-12 12:50:00,50.9,46.1,29.86,North,0,0.0,0.0,84,0.00,,,0.24,WUHU216HW,2013-02-12 18:50:00,
2013-02-12 12:55:00,51.0,46.3,29.86,North,0,0.0,0.0,84,0.00,,,0.24,WUHU216HW,2013-02-12 18:55:00,
2013-02-12 13:00:00,50.9,46.1,29.86,North,0,0.0,0.0,84,0.00,,,0.24,WUHU216HW,2013-02-12 19:00:00,
2013-02-12 13:05:00,51.0,46.3,29.86,North,0,0.0,0.0,84,0.00,,,0.24,WUHU216HW,2013-02-12 19:05:00,
2013-02-12 13:10:00,50.9,45.8,29.86,North,0,0.0,0.0,83,0.00,,,0.24,WUHU216HW,2013-02-12 19:10:00,
2013-02-12 13:15:00,51.0,46.0,29.85,North,0,0.0,0.0,83,0.00,,,0.24,WUHU216HW,2013-02-12 19:15:00,
2013-02-12 13:20:00,51.0,46.3,29.85,NNW,338,0.0,0.0,84,0.00,,,0.24,WUHU216HW,2013-02-12 19:20:00,
2013-02-12 13:25:00,51.2,46.5,29.85,NNW,338,0.0,0.0,84,0.00,,,0.24,WUHU216HW,2013-02-12 19:25:00,
2013-02-12 13:30:00,51.0,46.3,29.85,NNW,338,0.0,1.3,84,0.00,,,0.24,WUHU216HW,2013-02-12 19:30:00,
2013-02-12 13:35:00,51.0,46.3,29.84,North,0,0.0,1.3,84,0.00,,,0.24,WUHU216HW,2013-02-12 19:35:00,
2013-02-12 13:40:00,51.0,46.3,29.84,North,0,0.0,0.0,84,0.00,,,0.24,WUHU216HW,2013-02-12 19:40:00,
2013-02-12 13:46:00,51.0,46.3,29.84,North,0,0.0,0.0,84,0.00,,,0.24,WUHU216HW,2013-02-12 19:46:00,
2013-02-12 13:51:00,51.0,46.3,29.83,North,0,0.0,0.0,84,0.00,,,0.24,WUHU216HW,2013-02-12 19:51:00,
2013-02-12 13:56:00,51.0,46.3,29.83,North,0,0.0,0.0,84,0.00,,,0.24,WUHU216HW,2013-02-12 19:56:00,
2013-02-12 14:01:00,51.0,46.3,29.83,North,0,0.0,0.0,84,0.00,,,0.24,WUHU216HW,2013-02-12 20:01:00,
2013-02-12 14:06:00,51.0,46.3,29.83,North,0,0.0,0.0,84,0.00,,,0.24,WUHU216HW,2013-02-12 20:06:00,
2013-02-12 14:11:00,51.0,46.0,29.83,North,0,0.0,0.0,83,0.00,,,0.24,WUHU216HW,2013-02-12 20:11:00,
2013-02-12 14:16:00,51.0,46.0,29.83,North,0,0.0,0.0,83,0.00,,,0.24,WUHU216HW,2013-02-12 20:16:00,
2013-02-12 14:21:00,50.9,45.8,29.83,North,0,0.0,0.0,83,0.00,,,0.24,WUHU216HW,2013-02-12 20:21:00,
2013-02-12 14:26:00,50.9,45.8,29.82,North,0,0.0,0.0,83,0.00,,,0.24,WUHU216HW,2013-02-12 20:26:00,
2013-02-12 14:31:00,51.0,46.0,29.82,North,0,0.0,0.0,83,0.00,,,0.24,WUHU216HW,2013-02-12 20:31:00,
2013-02-12 14:36:00,51.0,46.0,29.82,North,0,0.0,0.0,83,0.00,,,0.24,WUHU216HW,2013-02-12 20:36:00,
2013-02-12 14:41:00,50.9,46.0,29.83,NW,315,0.0,0.0,82,0.00,,,0.24,WUHU216HW,2013-02-12 20:41:00,
2013-02-12 14:46:00,50.7,45.6,29.83,NNW,338,0.0,0.0,83,0.00,,,0.24,WUHU216HW,2013-02-12 20:46:00,
2013-02-12 14:51:00,50.7,45.3,29.83,NNW,338,0.0,0.0,82,0.00,,,0.24,WUHU216HW,2013-02-12 20:51:00,
2013-02-12 14:56:00,50.9,45.5,29.82,North,0,0.0,0.0,82,0.00,,,0.24,WUHU216HW,2013-02-12 20:56:00,
2013-02-12 15:01:00,50.7,45.3,29.82,North,0,0.0,0.0,82,0.00,,,0.24,WUHU216HW,2013-02-12 21:01:00,
2013-02-12 15:06:00,50.9,45.5,29.81,North,0,0.0,0.0,82,0.00,,,0.24,WUHU216HW,2013-02-12 21:06:00,
2013-02-12 15:11:00,51.2,45.9,29.82,North,0,1.7,1.7,82,0.00,,,0.24,WUHU216HW,2013-02-12 21:11:00,
2013-02-12 15:16:00,51.0,45.7,29.83,WNW,293,0.0,1.7,82,0.00,,,0.24,WUHU216HW,2013-02-12 21:16:00,
2013-02-12 15:21:00,50.5,45.2,29.84,West,270,1.5,1.7,82,0.00,,,0.24,WUHU216HW,2013-02-12 21:21:00,
2013-02-12 15:26:00,50.3,45.0,29.84,NNW,338,0.0,1.5,82,0.00,,,0.24,WUHU216HW,2013-02-12 21:26:00,
2013-02-12 15:32:00,50.3,45.0,29.84,WNW,293,3.3,3.3,82,0.00,,,0.24,WUHU216HW,2013-02-12 21:32:00,
2013-02-12 15:37:00,50.0,44.6,29.84,WNW,293,0.0,3.3,82,0.00,,,0.24,WUHU216HW,2013-02-12 21:37:00,
2013-02-12 15:42:00,49.8,44.7,29.84,WNW,293,0.0,3.3,83,0.00,,,0.24,WUHU216HW,2013-02-12 21:42:00,
2013-02-12 15:47:00,49.8,44.7,29.84,WNW,293,0.0,0.0,83,0.00,,,0.24,WUHU216HW,2013-02-12 21:47:00,
2013-02-12 15:52:00,50.5,45.5,29.84,WNW,293,0.0,0.0,83,0.00,,,0.24,WUHU216HW,2013-02-12 21:52:00,
2013-02-12 15:57:00,50.3,45.3,29.85,West,270,0.0,0.0,83,0.00,,,0.24,WUHU216HW,2013-02-12 21:57:00,
2013-02-12 16:02:00,50.1,45.1,29.84,West,270,0.0,0.0,83,0.00,,,0.24,WUHU216HW,2013-02-12 22:02:00,
2013-02-12 16:07:00,50.0,44.9,29.84,West,270,0.0,0.0,83,0.00,,,0.24,WUHU216HW,2013-02-12 22:07:00,
2013-02-12 16:12:00,50.1,45.1,29.84,West,270,0.0,0.0,83,0.00,,,0.24,WUHU216HW,2013-02-12 22:12:00,
2013-02-12 16:17:00,50.5,45.8,29.84,NNW,338,0.0,0.0,84,0.00,,,0.24,WUHU216HW,2013-02-12 22:17:00,
2013-02-12 16:22:00,50.5,45.5,29.84,WNW,293,0.0,0.0,83,0.00,,,0.24,WUHU216HW,2013-02-12 22:22:00,
2013-02-12 16:27:00,50.3,45.3,29.84,WNW,293,0.0,0.0,83,0.00,,,0.24,WUHU216HW,2013-02-12 22:27:00,
2013-02-12 16:32:00,50.1,45.1,29.84,WNW,293,0.0,0.0,83,0.00,,,0.24,WUHU216HW,2013-02-12 22:32:00,
2013-02-12 16:37:00,50.3,45.3,29.84,WNW,293,0.0,0.0,83,0.00,,,0.24,WUHU216HW,2013-02-12 22:37:00,
2013-02-12 16:42:00,50.3,45.3,29.84,WNW,293,0.0,0.0,83,0.00,,,0.24,WUHU216HW,2013-02-12 22:42:00,
2013-02-12 16:47:00,50.3,45.3,29.84,NW,315,0.0,0.0,83,0.00,,,0.24,WUHU216HW,2013-02-12 22:47:00,
2013-02-12 16:52:00,50.0,44.9,29.84,WNW,293,0.0,0.0,83,0.00,,,0.24,WUHU216HW,2013-02-12 22:52:00,
2013-02-12 16:58:00,50.1,45.1,29.84,WNW,293,0.0,0.0,83,0.00,,,0.24,WUHU216HW,2013-02-12 22:58:00,
2013-02-12 17:03:00,50.1,44.8,29.85,West,270,0.0,0.0,82,0.00,,,0.24,WUHU216HW,2013-02-12 23:03:00,
2013-02-12 17:08:00,49.8,44.4,29.85,WSW,248,0.0,0.0,82,0.00,,,0.24,WUHU216HW,2013-02-12 23:08:00,
2013-02-12 17:13:00,49.8,44.7,29.85,WNW,293,4.9,4.9,83,0.00,,,0.24,WUHU216HW,2013-02-12 23:13:00,
2013-02-12 17:18:00,49.8,44.4,29.84,WNW,293,4.0,4.9,82,0.00,,,0.24,WUHU216HW,2013-02-12 23:18:00,
2013-02-12 17:23:00,49.8,44.4,29.85,WNW,293,0.0,4.0,82,0.00,,,0.24,WUHU216HW,2013-02-12 23:23:00,
2013-02-12 17:28:00,49.6,44.3,29.85,WNW,293,0.0,4.0,82,0.00,,,0.24,WUHU216HW,2013-02-12 23:28:00,
2013-02-12 17:33:00,49.8,44.7,29.84,NW,315,0.0,0.0,83,0.00,,,0.24,WUHU216HW,2013-02-12 23:33:00,
2013-02-12 17:38:00,49.8,44.4,29.84,WNW,293,0.0,0.0,82,0.00,,,0.24,WUHU216HW,2013-02-12 23:38:00,
2013-02-12 17:43:00,49.6,44.3,29.85,WNW,293,0.0,0.0,82,0.00,,,0.24,WUHU216HW,2013-02-12 23:43:00,
2013-02-12 17:48:00,49.4,44.1,29.86,NW,315,2.9,2.9,82,0.00,,,0.24,WUHU216HW,2013-02-12 23:48:00,
2013-02-12 17:53:00,49.4,44.1,29.86,North,0,0.0,2.9,82,0.00,,,0.24,WUHU216HW,2013-02-12 23:53:00,
2013-02-12 17:59:00,49.2,43.9,29.86,WNW,293,0.0,2.9,82,0.00,,,0.24,WUHU216HW,2013-02-12 23:59:00,
2013-02-12 18:04:00,48.9,43.9,29.87,West,270,0.0,0.0,83,0.00,,,0.24,WUHU216HW,2013-02-13 00:04:00,
2013-02-12 18:09:00,49.1,44.0,29.87,West,270,0.0,0.0,83,0.00,,,0.24,WUHU216HW,2013-02-13 00:09:00,
2013-02-12 18:14:00,49.1,44.0,29.87,NW,315,4.4,4.4,83,0.00,,,0.24,WUHU216HW,2013-02-13 00:14:00,
2013-02-12 18:19:00,48.9,43.9,29.87,WNW,293,0.0,4.4,83,0.00,,,0.24,WUHU216HW,2013-02-13 00:19:00,
2013-02-12 18:24:00,48.7,43.7,29.87,NW,315,0.0,0.0,83,0.00,,,0.24,WUHU216HW,2013-02-13 00:24:00,
2013-02-12 18:29:00,48.7,43.7,29.87,WNW,293,0.0,0.0,83,0.00,,,0.24,WUHU216HW,2013-02-13 00:29:00,
2013-02-12 18:34:00,48.7,43.7,29.87,WNW,293,0.0,0.0,83,0.00,,,0.24,WUHU216HW,2013-02-13 00:34:00,
2013-02-12 18:39:00,48.7,43.7,29.88,North,0,0.0,0.0,83,0.00,,,0.24,WUHU216HW,2013-02-13 00:39:00,
2013-02-12 18:44:00,48.5,43.5,29.88,NNW,338,0.0,0.8,83,0.00,,,0.24,WUHU216HW,2013-02-13 00:44:00,
2013-02-12 18:49:00,48.3,43.3,29.89,West,270,0.0,0.8,83,0.00,,,0.24,WUHU216HW,2013-02-13 00:49:00,
2013-02-12 18:54:00,48.5,43.5,29.88,NNW,338,0.0,0.0,83,0.00,,,0.24,WUHU216HW,2013-02-13 00:54:00,
2013-02-12 18:59:00,48.7,43.7,29.88,North,0,5.3,5.3,83,0.00,,,0.24,WUHU216HW,2013-02-13 00:59:00,
2013-02-12 19:04:00,48.7,43.7,29.89,NW,315,0.0,5.3,83,0.00,,,0.24,WUHU216HW,2013-02-13 01:04:00,
2013-02-12 19:09:00,48.5,43.5,29.89,NW,315,3.3,5.3,83,0.00,,,0.24,WUHU216HW,2013-02-13 01:09:00,
2013-02-12 19:14:00,48.5,43.5,29.89,WNW,293,0.0,3.3,83,0.00,,,0.24,WUHU216HW,2013-02-13 01:14:00,
2013-02-12 19:19:00,48.3,43.3,29.89,WNW,293,0.0,0.0,83,0.00,,,0.24,WUHU216HW,2013-02-13 01:19:00,
2013-02-12 19:24:00,48.3,43.3,29.90,WNW,293,0.0,0.0,83,0.00,,,0.24,WUHU216HW,2013-02-13 01:24:00,
2013-02-12 19:30:00,48.3,43.3,29.90,WNW,293,0.0,0.0,83,0.00,,,0.24,WUHU216HW,2013-02-13 01:30:00,
2013-02-12 19:35:00,48.3,43.3,29.91,NW,315,0.0,0.0,83,0.00,,,0.24,WUHU216HW,2013-02-13 01:35:00,
2013-02-12 19:40:00,48.3,43.3,29.90,WNW,293,0.0,0.0,83,0.00,,,0.24,WUHU216HW,2013-02-13 01:40:00,
2013-02-12 19:45:00,48.3,43.3,29.91,West,270,5.1,5.1,83,0.00,,,0.24,WUHU216HW,2013-02-13 01:45:00,
2013-02-12 19:50:00,48.3,43.3,29.91,WNW,293,0.0,5.1,83,0.00,,,0.24,WUHU216HW,2013-02-13 01:50:00,
2013-02-12 19:55:00,48.2,43.2,29.91,WNW,293,0.0,5.1,83,0.00,,,0.24,WUHU216HW,2013-02-13 01:55:00,
2013-02-12 20:00:00,48.0,43.0,29.91,WNW,293,0.0,0.0,83,0.00,,,0.24,WUHU216HW,2013-02-13 02:00:00,
2013-02-12 20:05:00,48.0,43.0,29.91,WNW,293,0.0,0.0,83,0.00,,,0.24,WUHU216HW,2013-02-13 02:05:00,
2013-02-12 20:10:00,48.0,43.0,29.91,West,270,0.0,0.0,83,0.00,,,0.24,WUHU216HW,2013-02-13 02:10:00,
2013-02-12 20:15:00,48.0,43.0,29.92,West,270,0.0,0.0,83,0.00,,,0.24,WUHU216HW,2013-02-13 02:15:00,
2013-02-12 20:20:00,48.0,43.0,29.92,WNW,293,0.0,0.0,83,0.00,,,0.24,WUHU216HW,2013-02-13 02:20:00,
2013-02-12 20:25:00,48.0,43.0,29.92,WNW,293,0.0,0.0,83,0.00,,,0.24,WUHU216HW,2013-02-13 02:25:00,
2013-02-12 20:30:00,48.0,43.0,29.92,West,270,0.0,0.0,83,0.00,,,0.24,WUHU216HW,2013-02-13 02:30:00,
2013-02-12 20:35:00,48.0,43.0,29.92,WNW,293,0.0,0.0,83,0.00,,,0.24,WUHU216HW,2013-02-13 02:35:00,
2013-02-12 20:40:00,48.0,43.3,29.93,West,270,0.0,0.0,84,0.00,,,0.24,WUHU216HW,2013-02-13 02:40:00,
2013-02-12 20:45:00,48.0,43.3,29.93,WNW,293,0.0,0.0,84,0.00,,,0.24,WUHU216HW,2013-02-13 02:45:00,
2013-02-12 20:50:00,47.8,43.2,29.92,West,270,0.0,0.0,84,0.00,,,0.24,WUHU216HW,2013-02-13 02:50:00,
2013-02-12 20:55:00,47.8,43.2,29.93,West,270,0.0,0.0,84,0.00,,,0.24,WUHU216HW,2013-02-13 02:55:00,
2013-02-12 21:00:00,47.8,43.2,29.93,West,270,0.0,0.0,84,0.00,,,0.24,WUHU216HW,2013-02-13 03:00:00,
2013-02-12 21:05:00,48.0,43.3,29.93,WNW,293,0.0,0.0,84,0.00,,,0.24,WUHU216HW,2013-02-13 03:05:00,
2013-02-12 21:10:00,48.0,43.7,29.94,WNW,293,0.0,5.3,85,0.00,,,0.24,WUHU216HW,2013-02-13 03:10:00,
2013-02-12 21:15:00,48.0,43.7,29.94,North,0,0.0,5.3,85,0.00,,,0.24,WUHU216HW,2013-02-13 03:15:00,
2013-02-12 21:20:00,47.6,43.0,29.94,NNW,338,0.0,8.2,84,0.00,,,0.24,WUHU216HW,2013-02-13 03:20:00,
2013-02-12 21:25:00,47.4,43.1,29.95,NNW,338,0.0,8.2,85,0.00,,,0.24,WUHU216HW,2013-02-13 03:25:00,
2013-02-12 21:30:00,47.3,43.0,29.95,West,270,1.1,1.1,85,0.00,,,0.24,WUHU216HW,2013-02-13 03:30:00,
2013-02-12 21:35:00,47.1,42.8,29.95,West,270,7.6,8.7,85,0.00,,,0.24,WUHU216HW,2013-02-13 03:35:00,
2013-02-12 21:40:00,46.5,42.0,29.95,WNW,293,10.7,10.7,84,0.00,,,0.24,WUHU216HW,2013-02-13 03:40:00,
2013-02-12 21:45:00,45.8,41.6,29.96,West,270,2.9,14.0,85,0.00,,,0.24,WUHU216HW,2013-02-13 03:45:00,
2013-02-12 21:50:00,45.1,40.9,29.97,WNW,293,11.4,14.0,85,0.00,,,0.24,WUHU216HW,2013-02-13 03:50:00,
2013-02-12 21:56:00,44.9,41.0,29.97,West,270,7.1,11.4,86,0.00,,,0.24,WUHU216HW,2013-02-13 03:56:00,
2013-02-12 22:01:00,44.9,41.0,29.97,WNW,293,0.0,11.4,86,0.00,,,0.24,WUHU216HW,2013-02-13 04:01:00,
2013-02-12 22:06:00,44.7,40.8,29.97,NNE,23,0.0,8.7,86,0.00,,,0.24,WUHU216HW,2013-02-13 04:06:00,
2013-02-12 22:11:00,44.4,40.1,29.97,NW,315,3.1,8.7,85,0.00,,,0.24,WUHU216HW,2013-02-13 04:11:00,
2013-02-12 22:16:00,44.4,40.4,29.97,NNW,338,4.6,6.7,86,0.00,,,0.24,WUHU216HW,2013-02-13 04:16:00,
2013-02-12 22:21:00,44.4,40.1,29.97,NW,315,6.2,6.7,85,0.00,,,0.24,WUHU216HW,2013-02-13 04:21:00,
2013-02-12 22:26:00,44.2,40.0,29.98,WNW,293,7.3,7.3,85,0.00,,,0.24,WUHU216HW,2013-02-13 04:26:00,
2013-02-12 22:31:00,44.2,40.0,29.98,NW,315,7.1,7.6,85,0.00,,,0.24,WUHU216HW,2013-02-13 04:31:00,
2013-02-12 22:36:00,44.4,40.1,29.98,WNW,293,7.6,7.6,85,0.00,,,0.24,WUHU216HW,2013-02-13 04:36:00,
2013-02-12 22:41:00,44.4,39.8,29.98,NNE,23,7.8,7.8,84,0.00,,,0.24,WUHU216HW,2013-02-13 04:41:00,
2013-02-12 22:46:00,44.2,39.7,29.98,NW,315,0.0,7.8,84,0.00,,,0.24,WUHU216HW,2013-02-13 04:46:00,
2013-02-12 22:51:00,44.2,39.7,29.98,West,270,5.5,6.7,84,0.00,,,0.24,WUHU216HW,2013-02-13 04:51:00,
2013-02-12 22:56:00,44.4,39.8,29.99,NNW,338,8.2,8.2,84,0.00,,,0.24,WUHU216HW,2013-02-13 04:56:00,
2013-02-12 23:00:00,44.0,39.2,29.99,NW,315,2.0,8.7,83,0.00,,,0.24,WUHU216HW,2013-02-13 05:00:00,
2013-02-12 23:03:00,43.8,39.0,29.99,WNW,293,11.1,11.1,83,0.00,,,0.24,WUHU216HW,2013-02-13 05:03:00,
2013-02-12 23:08:00,43.5,38.4,29.99,WNW,293,8.0,11.1,83,0.00,,,0.24,WUHU216HW,2013-02-13 05:08:00,
2013-02-12 23:13:00,43.3,38.4,30.00,WNW,293,6.7,8.5,83,0.00,,,0.24,WUHU216HW,2013-02-13 05:13:00,
2013-02-12 23:18:00,43.3,38.1,29.99,NNW,338,0.0,6.7,82,0.00,,,0.24,WUHU216HW,2013-02-13 05:18:00,
2013-02-12 23:23:00,43.3,38.1,29.99,NW,315,5.1,6.7,82,0.00,,,0.24,WUHU216HW,2013-02-13 05:23:00,
2013-02-12 23:28:00,43.1,38.0,30.00,NW,315,5.3,8.2,82,0.00,,,0.24,WUHU216HW,2013-02-13 05:28:00,
2013-02-12 23:33:00,43.3,37.8,30.00,North,0,4.9,8.2,81,0.00,,,0.24,WUHU216HW,2013-02-13 05:33:00,
2013-02-12 23:38:00,43.1,37.4,30.00,WNW,293,5.8,8.0,80,0.00,,,0.24,WUHU216HW,2013-02-13 05:38:00,
2013-02-12 23:43:00,42.9,37.2,30.01,WNW,293,7.3,8.0,80,0.00,,,0.24,WUHU216HW,2013-02-13 05:43:00,
2013-02-12 23:48:00,42.9,37.2,30.00,WNW,293,1.5,7.3,80,0.00,,,0.24,WUHU216HW,2013-02-13 05:48:00,
2013-02-12 23:53:00,42.6,36.5,30.01,North,0,4.9,5.1,79,0.00,,,0.24,WUHU216HW,2013-02-13 05:53:00,
2013-02-12 23:58:00,42.6,36.5,30.01,WNW,293,1.3,4.9,79,0.00,,,0.24,WUHU216HW,2013-02-13 05:58:00,